Terminal Aerodrome Forecast
Issued by NWS Wilmington, OH

Current Version | Previous Version | Text Only | Print | Product List | Glossary Off
Versions: 1 2 3 4 5 6 7 8 9 10 11 12 13 14 15 16 17 18 19 20 21 22 23 24 25 26 27

000
FTUS41 KILN 010600 AAA
TAFILN
TAF AMD
KILN 010649Z 0107/0206 20005KT 4SM BR OVC004
      TEMPO 0107/0111 2SM BR VV002
     FM011400 21008KT 4SM BR BKN012
     FM011600 21011KT P6SM BKN025
     FM011800 21014G22KT P6SM SCT030
     FM020300 21007KT P6SM VCSH BKN030=

USA.gov is the U.S. government's official web portal to all federal, state and local government web resources and services.